Greenbush, Massachusetts
Current Conditions -  °F | °C
As of 8:10 PM on Wednesday 22 Oct 2014 (Local Time) from KGHG Reporting Station
Haze Haze  
Wind Chill: 55°   Ceiling: 500
Heat Index: 55°   Visibility: 3mi
Dew Point: 54°   Wind: 25mph
Humidity: 94%   Direction: 50°NE
Pressure: 29.8"   Gusts: 41mph
Location:  42.18°N, 70.75°W
Report Text: KGHG 230010Z AUTO 05022G36KT 3SM BR OVC005 13/12 A2980 RMK AO2 LTG DSNT S AND SW
Loading
Personal Weather Stations






























Interactive Weather Map
Tropical Storm Tracking
New forecast layout! Learn more

10-Day Weather Forecast

Advertisements
Track Severe Weather on mobile